Time;durP1;ratioP1;P1;durP2;ratioP2;P2;SDS_P1;SDS_P2;PMS_P1;PMS_P2;Temp;Humidity;BMP_temperature;BMP_pressure;BME280_temperature;BME280_humidity;BME280_pressure;Samples;Min_cycle;Max_cycle;Signal;HPM_P1;HPM_P2
2022/05/27 00:01:20;;;;;;;0.20;0.20;;;;;;;11.94;100.00;100375.22;7410913;19;20023;-91
2022/05/27 00:03:48;;;;;;;3.43;1.20;;;;;;;11.68;100.00;100374.84;7408874;19;20014;-92
2022/05/27 00:06:14;;;;;;;9.75;0.95;;;;;;;12.28;100.00;100360.00;7407965;19;20010;-93
2022/05/27 00:08:40;;;;;;;2.83;0.68;;;;;;;11.98;100.00;100362.63;7408166;19;20031;-90
2022/05/27 00:11:07;;;;;;;2.30;0.63;;;;;;;11.71;100.00;100368.34;7406925;19;20037;-91
2022/05/27 00:13:34;;;;;;;2.40;0.60;;;;;;;12.54;100.00;100366.66;7410680;19;20467;-90
2022/05/27 00:16:00;;;;;;;4.78;0.85;;;;;;;12.94;100.00;100366.94;7409846;19;20010;-91
2022/05/27 00:18:27;;;;;;;4.47;0.43;;;;;;;13.00;100.00;100362.22;7408066;19;20018;-92
2022/05/27 00:20:53;;;;;;;0.40;0.30;;;;;;;13.03;100.00;100363.28;7408821;19;20010;-91
2022/05/27 00:23:20;;;;;;;3.05;0.22;;;;;;;13.07;100.00;100369.50;7414157;19;20007;-91
2022/05/27 00:25:46;;;;;;;5.10;1.38;;;;;;;13.07;100.00;100367.47;7406570;19;20017;-91
2022/05/27 00:28:13;;;;;;;1.83;1.25;;;;;;;13.09;100.00;100373.38;7407088;19;20011;-90
2022/05/27 00:30:39;;;;;;;5.60;0.55;;;;;;;13.07;100.00;100364.69;7408674;19;20074;-91
2022/05/27 00:33:05;;;;;;;1.48;0.70;;;;;;;13.03;100.00;100372.47;7411234;19;20039;-91
2022/05/27 00:35:32;;;;;;;4.15;0.60;;;;;;;13.03;100.00;100375.25;7407906;19;20019;-91
2022/05/27 00:37:58;;;;;;;3.00;0.80;;;;;;;12.98;100.00;100375.91;7407947;19;20041;-91
2022/05/27 00:40:33;;;;;;;2.63;0.70;;;;;;;12.92;100.00;100373.03;7409366;19;20636;-90
2022/05/27 00:42:59;;;;;;;0.68;0.50;;;;;;;12.94;100.00;100378.91;7412861;19;20011;-89
2022/05/27 00:45:26;;;;;;;6.10;0.32;;;;;;;12.89;100.00;100376.78;7405906;19;20695;-91
2022/05/27 00:47:57;;;;;;;1.05;0.45;;;;;;;12.95;100.00;100380.44;7407280;19;20468;-91
2022/05/27 00:50:28;;;;;;;;;;;;;;;12.90;100.00;100388.72;7407171;19;20010;-90
2022/05/27 00:52:55;;;;;;;1.60;0.60;;;;;;;12.72;100.00;100388.88;7409092;19;19918;-91
2022/05/27 00:55:27;;;;;;;0.73;0.73;;;;;;;11.55;100.00;100381.84;7405266;19;20031;-89
2022/05/27 00:58:01;;;;;;;0.57;0.57;;;;;;;11.36;100.00;100397.84;7404434;19;20014;-91
2022/05/27 01:00:27;;;;;;;7.63;1.15;;;;;;;11.30;100.00;100394.91;7407386;19;20033;-90
2022/05/27 01:02:55;;;;;;;0.15;0.15;;;;;;;12.35;100.00;100387.56;7410956;19;20452;-90
2022/05/27 01:05:24;;;;;;;7.88;1.05;;;;;;;12.48;100.00;100385.31;7400620;19;20028;-90
2022/05/27 01:07:55;;;;;;;0.35;0.35;;;;;;;12.57;100.00;100400.00;7399549;19;20018;-91
2022/05/27 01:10:23;;;;;;;1.77;0.82;;;;;;;12.72;100.00;100394.44;7404932;19;20014;-91
2022/05/27 01:13:07;;;;;;;0.60;0.60;;;;;;;12.84;100.00;100391.41;7403726;19;20018;-90
2022/05/27 01:16:15;;;;;;;0.45;0.30;;;;;;;12.72;100.00;100395.22;7401154;19;20014;-90
2022/05/27 01:21:44;;;;;;;1.38;0.80;;;;;;;12.76;100.00;100411.81;7401039;19;20086;-91
2022/05/27 01:24:39;;;;;;;0.35;0.35;;;;;;;12.81;100.00;100409.13;7398106;19;20484;-91
2022/05/27 01:27:41;;;;;;;1.65;0.40;;;;;;;12.89;100.00;100415.13;7398171;19;20029;-91
2022/05/27 01:30:23;;;;;;;3.00;0.73;;;;;;;13.05;100.00;100422.34;7398617;19;20090;-91
2022/05/27 01:33:16;;;;;;;2.15;1.15;;;;;;;13.14;100.00;100420.25;7404889;19;20344;-91
2022/05/27 01:35:51;;;;;;;1.05;0.52;;;;;;;13.17;100.00;100435.28;7399485;19;20022;-91
2022/05/27 01:38:30;;;;;;;1.65;0.50;;;;;;;13.11;100.00;100432.38;7399944;19;20015;-91
2022/05/27 01:41:06;;;;;;;0.75;0.45;;;;;;;13.14;100.00;100417.44;7400850;19;20019;-91
2022/05/27 01:43:49;;;;;;;3.83;0.73;;;;;;;13.15;100.00;100426.59;7398441;19;20334;-89
2022/05/27 01:46:17;;;;;;;2.47;1.08;;;;;;;13.25;100.00;100423.25;7399135;19;20017;-91
2022/05/27 01:48:46;;;;;;;1.45;0.80;;;;;;;13.25;100.00;100433.66;7398752;19;20021;-87
2022/05/27 01:51:34;;;;;;;1.60;0.70;;;;;;;13.21;100.00;100433.84;7397056;19;20007;-87
2022/05/27 01:54:08;;;;;;;0.82;0.55;;;;;;;13.16;100.00;100434.53;7397495;19;20007;-87
2022/05/27 01:56:37;;;;;;;2.60;0.88;;;;;;;13.18;100.00;100446.00;7399819;19;20048;-87
2022/05/27 01:59:08;;;;;;;3.22;1.10;;;;;;;13.18;100.00;100443.19;7395205;19;20014;-86
2022/05/27 02:01:38;;;;;;;1.67;0.40;;;;;;;13.17;100.00;100447.22;7397426;19;20829;-84
2022/05/27 02:04:18;;;;;;;6.50;0.75;;;;;;;13.11;100.00;100454.75;7397167;19;20074;-85
2022/05/27 02:06:49;;;;;;;0.25;0.10;;;;;;;13.06;100.00;100455.41;7397852;19;20448;-85
2022/05/27 02:09:19;;;;;;;0.60;0.60;;;;;;;13.00;100.00;100448.13;7396920;19;20026;-85
2022/05/27 02:11:48;;;;;;;3.63;0.60;;;;;;;12.96;100.00;100453.91;7397246;19;20011;-87
2022/05/27 02:14:22;;;;;;;11.70;0.73;;;;;;;12.88;100.00;100447.91;7397310;19;20499;-85
2022/05/27 02:16:53;;;;;;;10.55;0.70;;;;;;;12.88;100.00;100444.34;7398084;19;20038;-85
2022/05/27 02:19:32;;;;;;;3.95;0.50;;;;;;;12.89;100.00;100440.28;7393495;19;20031;-87
2022/05/27 02:22:09;;;;;;;8.82;0.50;;;;;;;12.81;100.00;100442.69;7400894;19;20011;-85
2022/05/27 02:25:05;;;;;;;4.90;1.48;;;;;;;12.81;100.00;100447.50;7398744;19;20021;-88
2022/05/27 02:28:04;;;;;;;2.88;0.60;;;;;;;12.73;100.00;100449.09;7395835;19;20397;-85
2022/05/27 02:30:33;;;;;;;1.25;1.15;;;;;;;12.78;100.00;100440.81;7394811;19;20381;-85
2022/05/27 02:35:57;;;;;;;0.15;0.15;;;;;;;12.79;100.00;100447.97;7398709;19;20039;-85
2022/05/27 02:38:23;;;;;;;1.83;0.77;;;;;;;12.81;100.00;100447.50;7393818;19;20018;-85
2022/05/27 02:41:02;;;;;;;1.98;0.93;;;;;;;12.82;100.00;100449.81;7397136;19;20010;-87
2022/05/27 02:43:53;;;;;;;1.55;0.50;;;;;;;12.94;100.00;100446.00;7398290;19;20034;-85
2022/05/27 02:46:28;;;;;;;1.55;0.60;;;;;;;12.86;100.00;100450.38;7398119;19;20472;-85
2022/05/27 02:49:13;;;;;;;1.50;0.52;;;;;;;12.80;100.00;100446.72;7396959;19;20038;-85
2022/05/27 02:51:50;;;;;;;2.75;0.80;;;;;;;12.79;100.00;100450.00;7396717;19;20019;-85
2022/05/27 02:54:42;;;;;;;0.82;0.82;;;;;;;12.77;100.00;100458.09;7395753;19;20007;-85
2022/05/27 02:57:41;;;;;;;0.77;0.77;;;;;;;12.74;100.00;100461.81;7394049;19;20103;-85
2022/05/27 03:00:24;;;;;;;1.75;0.52;;;;;;;12.70;100.00;100453.63;7395010;19;20010;-85
2022/05/27 03:02:51;;;;;;;1.75;0.47;;;;;;;12.65;100.00;100459.06;7398904;19;20017;-85
2022/05/27 03:05:23;;;;;;;5.20;0.85;;;;;;;12.70;100.00;100458.44;7396903;19;20031;-84
2022/05/27 03:07:58;;;;;;;0.50;0.50;;;;;;;12.70;100.00;100448.03;7395248;19;20022;-85
2022/05/27 03:11:00;;;;;;;10.07;0.73;;;;;;;12.68;100.00;100452.53;7395345;19;20094;-85
2022/05/27 03:13:49;;;;;;;5.15;0.68;;;;;;;12.69;100.00;100460.44;7396562;19;20021;-85
2022/05/27 03:16:38;;;;;;;2.58;0.95;;;;;;;12.71;100.00;100463.53;7394024;19;20039;-85
2022/05/27 03:19:35;;;;;;;12.48;0.80;;;;;;;12.67;100.00;100478.94;7393366;19;20010;-85
2022/05/27 03:22:13;;;;;;;1.27;0.80;;;;;;;12.77;100.00;100472.84;7397177;19;20014;-86
2022/05/27 03:25:15;;;;;;;3.70;0.35;;;;;;;12.74;100.00;100470.19;7394860;19;20007;-87
2022/05/27 03:27:54;;;;;;;1.95;0.75;;;;;;;12.72;100.00;100467.09;7393667;19;20078;-86
2022/05/27 03:30:31;;;;;;;1.13;0.75;;;;;;;12.75;100.00;100464.16;7396092;19;20010;-87
2022/05/27 03:33:01;;;;;;;1.77;0.95;;;;;;;12.74;100.00;100459.81;7397319;19;20007;-87
2022/05/27 03:35:41;;;;;;;6.75;0.52;;;;;;;12.81;100.00;100464.25;7394026;19;20081;-87
2022/05/27 03:38:25;;;;;;;0.77;0.40;;;;;;;12.78;100.00;100470.78;7395239;19;20014;-86
2022/05/27 03:41:17;;;;;;;0.20;0.20;;;;;;;12.75;100.00;100466.16;7395677;19;20070;-87
2022/05/27 03:43:45;;;;;;;2.17;0.35;;;;;;;12.83;100.00;100470.16;7393777;19;20481;-86
2022/05/27 03:46:11;;;;;;;3.63;0.98;;;;;;;12.74;100.00;100475.78;7394497;19;20015;-86
2022/05/27 03:48:38;;;;;;;1.77;0.95;;;;;;;12.71;100.00;100471.91;7393087;19;20011;-87
2022/05/27 03:51:19;;;;;;;1.08;0.57;;;;;;;12.60;100.00;100479.31;7392522;19;20014;-87
2022/05/27 03:54:03;;;;;;;1.45;1.38;;;;;;;12.49;100.00;100477.03;7394651;19;20520;-85
2022/05/27 03:56:35;;;;;;;16.88;1.67;;;;;;;12.37;100.00;100482.81;7394371;19;20078;-85
2022/05/27 03:59:03;;;;;;;1.45;0.57;;;;;;;12.45;100.00;100486.84;7392897;19;20489;-85
2022/05/27 04:01:31;;;;;;;0.63;0.40;;;;;;;12.43;100.00;100490.09;7395037;19;20018;-86
2022/05/27 04:03:59;;;;;;;3.60;0.63;;;;;;;12.44;100.00;100496.44;7394729;19;20015;-85
2022/05/27 04:06:27;;;;;;;1.02;0.35;;;;;;;12.34;100.00;100497.75;7394233;19;20014;-85
2022/05/27 04:08:57;;;;;;;1.88;0.45;;;;;;;12.34;100.00;100492.94;7390920;19;20473;-85
2022/05/27 04:11:25;;;;;;;1.30;0.37;;;;;;;12.37;100.00;100503.16;7394693;19;20346;-85
2022/05/27 04:13:51;;;;;;;4.32;1.55;;;;;;;12.33;100.00;100504.56;7393823;19;20014;-85
2022/05/27 04:16:17;;;;;;;0.82;0.45;;;;;;;12.29;100.00;100517.94;7393552;19;20398;-85
2022/05/27 04:18:44;;;;;;;3.00;0.50;;;;;;;12.24;100.00;100515.75;7393660;19;20011;-84
2022/05/27 04:21:10;;;;;;;1.60;0.93;;;;;;;12.19;100.00;100509.56;7394826;19;20019;-85
2022/05/27 04:23:37;;;;;;;5.45;0.50;;;;;;;12.18;100.00;100512.84;7393023;19;20365;-84
2022/05/27 04:26:04;;;;;;;4.90;0.30;;;;;;;12.19;100.00;100514.41;7391068;19;20487;-85
2022/05/27 04:28:31;;;;;;;3.58;1.17;;;;;;;12.23;100.00;100512.22;7391842;19;20011;-84
2022/05/27 04:30:57;;;;;;;5.43;1.08;;;;;;;12.29;100.00;100513.13;7392951;19;20418;-85
2022/05/27 04:33:23;;;;;;;6.93;0.60;;;;;;;12.37;100.00;100507.97;7394289;19;20039;-85
2022/05/27 04:35:50;;;;;;;0.45;0.40;;;;;;;12.42;100.00;100512.91;7393735;19;20027;-85
2022/05/27 04:38:16;;;;;;;0.63;0.55;;;;;;;12.47;100.00;100520.66;7391750;19;20079;-85
2022/05/27 04:40:42;;;;;;;1.38;0.60;;;;;;;12.41;100.00;100531.69;7399353;19;20070;-85
2022/05/27 04:43:08;;;;;;;0.90;0.40;;;;;;;12.39;100.00;100539.00;7402027;19;20488;-85
2022/05/27 04:45:34;;;;;;;9.80;1.27;;;;;;;12.48;100.00;100541.75;7401366;19;20604;-85
2022/05/27 04:48:01;;;;;;;4.72;1.65;;;;;;;12.55;100.00;100547.78;7404220;19;20021;-85
2022/05/27 04:50:27;;;;;;;1.55;0.95;;;;;;;12.61;100.00;100547.91;7403028;19;20414;-86
2022/05/27 04:52:53;;;;;;;8.88;0.52;;;;;;;12.60;100.00;100538.75;7404668;19;20019;-85
2022/05/27 04:55:22;;;;;;;0.77;0.77;;;;;;;12.61;100.00;100545.88;7400106;19;20018;-85
2022/05/27 04:57:53;;;;;;;0.73;0.73;;;;;;;12.64;100.00;100544.16;7399773;19;20007;-87
2022/05/27 05:00:22;;;;;;;0.20;0.20;;;;;;;12.70;100.00;100547.88;7401348;19;20018;-86
2022/05/27 05:02:49;;;;;;;1.48;0.55;;;;;;;12.75;100.00;100550.03;7402233;19;20018;-85
2022/05/27 05:05:18;;;;;;;6.80;0.55;;;;;;;12.81;100.00;100548.13;7401275;19;20070;-85
2022/05/27 05:07:47;;;;;;;0.85;0.45;;;;;;;12.90;100.00;100550.88;7400408;19;20129;-85
2022/05/27 05:10:17;;;;;;;4.80;1.40;;;;;;;12.98;100.00;100557.66;7401463;19;20045;-86
2022/05/27 05:12:44;;;;;;;12.85;0.85;;;;;;;13.00;100.00;100557.94;7404834;19;20033;-85
2022/05/27 05:15:11;;;;;;;7.60;0.65;;;;;;;13.02;100.00;100563.84;7401355;19;20022;-85
2022/05/27 05:17:37;;;;;;;1.27;1.13;;;;;;;13.06;100.00;100570.03;7399288;19;20039;-86
2022/05/27 05:20:05;;;;;;;0.63;0.52;;;;;;;13.19;100.00;100570.59;7398792;19;20367;-85
2022/05/27 05:22:31;;;;;;;0.95;0.63;;;;;;;13.11;100.00;100561.00;7403130;19;20040;-85
2022/05/27 05:24:58;;;;;;;2.70;1.08;;;;;;;13.05;100.00;100568.50;7400032;19;20022;-86
2022/05/27 05:27:26;;;;;;;0.85;0.50;;;;;;;13.06;100.00;100558.88;7399762;19;20504;-85
2022/05/27 05:29:53;;;;;;;5.47;0.73;;;;;;;13.11;100.00;100561.00;7399471;19;20007;-85
2022/05/27 05:32:19;;;;;;;10.48;0.98;;;;;;;13.22;100.00;100561.25;7401401;19;20029;-86
2022/05/27 05:34:46;;;;;;;0.95;0.80;;;;;;;13.25;100.00;100559.53;7399304;19;20007;-84
2022/05/27 05:37:12;;;;;;;7.72;1.73;;;;;;;13.29;100.00;100549.72;7397451;19;20010;-85
2022/05/27 05:39:38;;;;;;;2.65;0.73;;;;;;;13.34;100.00;100549.03;7396579;19;20021;-85
2022/05/27 05:42:07;;;;;;;0.70;0.70;;;;;;;13.32;100.00;100556.38;7401760;19;20010;-85
2022/05/27 05:44:33;;;;;;;0.52;0.52;;;;;;;13.43;100.00;100562.97;7397948;19;20052;-85
2022/05/27 05:47:01;;;;;;;5.15;1.25;;;;;;;13.45;100.00;100571.66;7399385;19;20394;-85
2022/05/27 05:49:28;;;;;;;5.55;0.90;;;;;;;13.44;100.00;100575.72;7397423;19;20014;-85
2022/05/27 05:51:58;;;;;;;2.38;0.32;;;;;;;13.42;100.00;100574.63;7396858;19;20018;-85
2022/05/27 05:54:25;;;;;;;2.10;0.73;;;;;;;13.47;100.00;100582.38;7398494;19;20783;-85
2022/05/27 05:56:52;;;;;;;1.73;0.38;;;;;;;13.50;100.00;100587.78;7397518;19;20022;-86
2022/05/27 05:59:19;;;;;;;0.90;0.30;;;;;;;13.53;100.00;100591.66;7395912;19;20084;-85
2022/05/27 06:01:46;;;;;;;3.63;0.70;;;;;;;13.60;100.00;100597.66;7399667;19;20014;-86
2022/05/27 06:04:13;;;;;;;28.95;1.13;;;;;;;13.65;100.00;100605.41;7398337;19;20472;-85
2022/05/27 06:06:40;;;;;;;0.43;0.28;;;;;;;13.74;100.00;100603.75;7398387;19;20038;-87
2022/05/27 06:09:07;;;;;;;5.97;1.20;;;;;;;13.71;100.00;100608.28;7396942;19;20015;-87
2022/05/27 06:11:36;;;;;;;5.38;0.60;;;;;;;13.81;100.00;100606.97;7397032;19;20027;-88
2022/05/27 06:14:03;;;;;;;0.98;0.52;;;;;;;13.89;100.00;100618.56;7397944;19;20042;-82
2022/05/27 06:16:30;;;;;;;0.50;0.50;;;;;;;13.95;100.00;100613.84;7395145;19;20019;-85
2022/05/27 06:18:56;;;;;;;0.63;0.55;;;;;;;14.07;100.00;100613.59;7396697;19;20026;-86
2022/05/27 06:21:22;;;;;;;1.60;0.55;;;;;;;14.10;100.00;100606.22;7398642;19;20018;-86
2022/05/27 06:23:48;;;;;;;3.50;0.65;;;;;;;14.18;100.00;100601.81;7399579;19;20019;-87
2022/05/27 06:26:14;;;;;;;1.45;0.52;;;;;;;14.29;100.00;100618.88;7399156;19;20035;-88
2022/05/27 06:34:43;;;;;;;5.38;1.08;;;;;;;14.50;100.00;100622.53;7399243;19;20066;-88
2022/05/27 06:37:13;;;;;;;0.77;0.65;;;;;;;14.53;100.00;100619.50;7395218;19;20469;-87
2022/05/27 06:39:40;;;;;;;1.15;0.75;;;;;;;14.55;100.00;100630.25;7396565;19;20010;-89
2022/05/27 06:42:09;;;;;;;0.40;0.40;;;;;;;14.54;100.00;100632.28;7400647;19;20469;-87
2022/05/27 06:44:39;;;;;;;0.28;0.28;;;;;;;14.60;100.00;100630.34;7396926;19;20401;-86
2022/05/27 06:47:05;;;;;;;0.82;0.60;;;;;;;14.79;100.00;100640.06;7398025;19;20011;-87
2022/05/27 06:49:32;;;;;;;1.33;1.23;;;;;;;14.87;100.00;100640.47;7395104;19;20015;-87
2022/05/27 06:51:59;;;;;;;9.70;0.93;;;;;;;14.88;100.00;100637.16;7398000;19;20389;-86
2022/05/27 06:54:26;;;;;;;3.03;0.95;;;;;;;15.14;100.00;100637.31;7396526;19;20032;-88
2022/05/27 06:56:52;;;;;;;1.83;0.60;;;;;;;15.26;100.00;100647.44;7396903;19;20006;-87
2022/05/27 06:59:21;;;;;;;0.57;0.47;;;;;;;15.35;100.00;100638.91;7395561;19;20019;-87
2022/05/27 07:01:48;;;;;;;7.97;1.58;;;;;;;15.37;100.00;100646.81;7397198;19;20014;-86
2022/05/27 07:04:17;;;;;;;8.48;0.90;;;;;;;15.44;100.00;100627.53;7396298;19;20010;-87
2022/05/27 07:06:46;;;;;;;19.55;1.17;;;;;;;15.56;100.00;100650.94;7394987;19;20046;-86
2022/05/27 07:09:15;;;;;;;0.60;0.30;;;;;;;15.52;100.00;100644.75;7395728;19;20022;-86
2022/05/27 07:11:44;;;;;;;0.82;0.70;;;;;;;15.48;100.00;100644.19;7396302;19;20345;-86
2022/05/27 07:14:12;;;;;;;5.55;0.55;;;;;;;15.52;100.00;100644.75;7393982;19;20003;-86
2022/05/27 07:16:38;;;;;;;0.52;0.35;;;;;;;15.53;100.00;100635.84;7398149;19;20023;-87
2022/05/27 07:19:04;;;;;;;0.75;0.73;;;;;;;15.58;100.00;100637.19;7395056;19;20069;-88
2022/05/27 07:21:31;;;;;;;14.30;0.70;;;;;;;15.61;100.00;100647.44;7397540;19;20023;-86
2022/05/27 07:23:57;;;;;;;7.03;0.65;;;;;;;15.72;100.00;100653.19;7397548;19;20019;-85
2022/05/27 07:26:24;;;;;;;2.03;0.68;;;;;;;15.69;100.00;100665.41;7396760;19;20073;-86
2022/05/27 07:28:50;;;;;;;1.65;0.70;;;;;;;15.74;100.00;100673.13;7393968;19;20361;-87
2022/05/27 07:31:17;;;;;;;4.95;0.77;;;;;;;15.70;100.00;100672.56;7391646;19;20028;-86
2022/05/27 07:33:44;;;;;;;2.25;0.55;;;;;;;15.65;100.00;100679.66;7394928;19;20013;-87
2022/05/27 07:36:11;;;;;;;1.85;0.43;;;;;;;15.53;100.00;100674.38;7394998;19;20022;-87
2022/05/27 07:38:37;;;;;;;6.22;0.50;;;;;;;15.41;100.00;100679.03;7394750;19;20021;-86
2022/05/27 07:41:05;;;;;;;2.85;0.47;;;;;;;15.28;100.00;100683.44;7394355;19;20010;-84
2022/05/27 07:43:32;;;;;;;0.28;0.20;;;;;;;15.29;100.00;100682.19;7394921;19;20010;-83
2022/05/27 07:45:59;;;;;;;1.52;0.50;;;;;;;15.40;100.00;100687.97;7393438;19;20010;-84
2022/05/27 07:48:26;;;;;;;0.75;0.60;;;;;;;15.42;100.00;100688.25;7394538;19;20011;-84
2022/05/27 07:50:52;;;;;;;0.65;0.50;;;;;;;15.43;100.00;100678.53;7388618;19;20006;-85
2022/05/27 07:53:19;;;;;;;6.28;0.88;;;;;;;15.60;100.00;100673.97;7396880;19;20014;-85
2022/05/27 07:55:45;;;;;;;1.08;0.57;;;;;;;15.83;100.00;100673.75;7392545;19;20031;-84
2022/05/27 07:58:12;;;;;;;1.85;0.60;;;;;;;15.84;100.00;100671.72;7391681;19;20042;-85
2022/05/27 08:00:38;;;;;;;0.95;0.50;;;;;;;15.83;100.00;100682.19;7393712;19;20011;-85
2022/05/27 08:03:05;;;;;;;7.53;0.60;;;;;;;15.76;100.00;100691.03;7397692;19;20015;-85
2022/05/27 08:05:32;;;;;;;1.20;0.30;;;;;;;15.66;100.00;100695.22;7389046;19;20345;-83
2022/05/27 08:08:00;;;;;;;1.75;0.85;;;;;;;15.62;100.00;100699.50;7386035;19;20030;-85
2022/05/27 08:10:34;;;;;;;1.38;0.30;;;;;;;15.55;100.00;100702.75;7384381;19;20018;-83
2022/05/27 08:13:01;;;;;;;7.22;1.95;;;;;;;15.68;100.00;100698.31;7390774;19;20035;-84
2022/05/27 08:15:27;;;;;;;12.68;0.60;;;;;;;15.69;100.00;100699.09;7393028;19;20033;-84
2022/05/27 08:17:54;;;;;;;5.00;0.47;;;;;;;15.63;100.00;100701.06;7396386;19;20014;-84
2022/05/27 08:20:24;;;;;;;19.00;1.77;;;;;;;15.67;100.00;100707.25;7398805;19;20085;-84
2022/05/27 08:22:53;;;;;;;1.45;0.40;;;;;;;14.93;100.00;100712.22;7397766;19;20097;-84
2022/05/27 08:25:21;;;;;;;4.70;0.47;;;;;;;14.67;100.00;100714.06;7393897;19;20014;-84
2022/05/27 08:27:48;;;;;;;4.97;0.65;;;;;;;16.08;100.00;100703.19;7391763;19;20022;-84
2022/05/27 08:30:18;;;;;;;0.82;0.80;;;;;;;16.43;100.00;100706.66;7396053;19;20042;-83
2022/05/27 08:32:47;;;;;;;2.05;0.43;;;;;;;16.31;100.00;100707.78;7402887;19;20018;-84
2022/05/27 08:38:03;;;;;;;2.97;0.22;;;;;;;15.99;100.00;100700.50;7399533;19;20014;-85
2022/05/27 08:40:57;;;;;;;1.33;0.80;;;;;;;15.89;100.00;100713.16;7398852;19;20066;-83
2022/05/27 08:43:37;;;;;;;0.55;0.20;;;;;;;15.91;100.00;100710.63;7399552;19;20011;-83
2022/05/27 08:46:25;;;;;;;1.40;0.37;;;;;;;16.17;100.00;100717.09;7398089;19;20075;-83
2022/05/27 08:48:57;;;;;;;0.80;0.40;;;;;;;16.52;100.00;100737.41;7395303;19;20018;-82
2022/05/27 08:51:29;;;;;;;5.25;0.88;;;;;;;16.70;100.00;100719.44;7395644;19;20011;-84
2022/05/27 08:54:08;;;;;;;1.30;0.70;;;;;;;17.28;100.00;100718.16;7396963;19;20022;-84
2022/05/27 08:59:31;;;;;;;1.38;0.40;;;;;;;17.68;100.00;100734.84;7394156;19;20021;-82
2022/05/27 09:02:08;;;;;;;5.68;0.68;;;;;;;17.58;100.00;100727.09;7400077;19;20014;-84
2022/05/27 09:04:53;;;;;;;2.33;0.40;;;;;;;17.29;100.00;100731.75;7398149;19;20017;-83
2022/05/27 09:07:31;;;;;;;8.88;0.38;;;;;;;17.17;100.00;100737.78;7397316;19;20025;-83
2022/05/27 09:10:05;;;;;;;4.95;0.45;;;;;;;17.24;100.00;100737.31;7394216;19;20014;-83
2022/05/27 09:12:34;;;;;;;7.22;0.82;;;;;;;17.59;100.00;100725.81;7397392;19;20014;-84
2022/05/27 09:15:26;;;;;;;2.92;0.68;;;;;;;17.52;100.00;100724.22;7396146;19;20011;-83
2022/05/27 09:17:52;;;;;;;3.00;0.45;;;;;;;17.37;100.00;100720.78;7396870;19;20166;-83
2022/05/27 09:20:34;;;;;;;2.67;0.60;;;;;;;17.08;100.00;100735.16;7395459;19;20021;-83
2022/05/27 09:23:24;;;;;;;0.65;0.13;;;;;;;16.88;100.00;100740.84;7400019;19;20032;-83
2022/05/27 09:26:19;;;;;;;0.90;0.38;;;;;;;16.89;100.00;100748.03;7392058;19;20045;-85
2022/05/27 09:29:07;;;;;;;0.57;0.57;;;;;;;17.14;100.00;100752.84;7393207;19;20019;-83
2022/05/27 09:31:46;;;;;;;1.13;0.35;;;;;;;17.82;100.00;100750.03;7397269;19;20014;-85
2022/05/27 09:34:13;;;;;;;0.20;0.10;;;;;;;17.84;100.00;100745.44;7397443;19;20014;-84
2022/05/27 09:36:47;;;;;;;1.60;0.38;;;;;;;17.56;100.00;100755.78;7397622;19;20023;-85
2022/05/27 09:39:18;;;;;;;5.75;0.25;;;;;;;17.31;100.00;100756.56;7397556;19;20038;-84
2022/05/27 09:42:05;;;;;;;4.30;0.30;;;;;;;17.15;100.00;100765.66;7407924;19;20010;-84
2022/05/27 09:44:40;;;;;;;0.40;0.30;;;;;;;17.06;100.00;100768.66;7410982;19;20018;-84
2022/05/27 09:47:06;;;;;;;4.13;0.82;;;;;;;17.06;100.00;100760.22;7404560;19;20015;-83
2022/05/27 09:49:34;;;;;;;6.05;1.17;;;;;;;17.24;100.00;100766.25;7396141;19;20007;-83
2022/05/27 09:52:01;;;;;;;5.72;0.50;;;;;;;17.21;100.00;100756.00;7394697;19;20026;-84
2022/05/27 09:54:55;;;;;;;1.30;0.98;;;;;;;17.26;100.00;100755.25;7395598;19;20029;-82
2022/05/27 09:57:27;;;;;;;3.70;0.45;;;;;;;17.36;100.00;100759.44;7394788;19;20022;-82
2022/05/27 09:59:59;;;;;;;1.20;0.45;;;;;;;17.38;100.00;100761.75;7388271;19;20015;-83
2022/05/27 10:02:30;;;;;;;3.30;0.63;;;;;;;17.36;100.00;100765.06;7391818;19;20018;-83
2022/05/27 10:05:22;;;;;;;0.10;0.10;;;;;;;17.33;100.00;100762.47;7390324;19;20028;-83
2022/05/27 10:07:54;;;;;;;0.60;0.50;;;;;;;17.38;100.00;100761.75;7386533;19;20026;-83
2022/05/27 10:10:32;;;;;;;0.20;0.17;;;;;;;17.62;100.00;100765.03;7390393;19;20015;-84
2022/05/27 10:13:30;;;;;;;2.55;0.30;;;;;;;17.85;100.00;100749.00;7392923;19;20086;-82
2022/05/27 10:16:04;;;;;;;3.03;0.75;;;;;;;18.00;100.00;100753.19;7390121;19;20018;-82
2022/05/27 10:18:31;;;;;;;1.52;0.40;;;;;;;17.96;100.00;100761.13;7388871;19;20115;-82
2022/05/27 10:21:18;;;;;;;1.00;0.68;;;;;;;18.08;100.00;100759.88;7388733;19;20021;-82
2022/05/27 10:23:49;;;;;;;1.80;0.65;;;;;;;18.08;100.00;100765.53;7389254;19;20014;-83
2022/05/27 10:26:30;;;;;;;1.60;0.50;;;;;;;17.93;100.00;100773.41;7390276;19;20018;-82
2022/05/27 10:29:02;;;;;;;4.95;0.82;;;;;;;17.55;100.00;100771.13;7389786;19;20026;-83
2022/05/27 10:31:29;;;;;;;2.28;0.30;;;;;;;18.14;100.00;100762.75;7389230;19;20018;-83
2022/05/27 10:33:55;;;;;;;2.47;0.75;;;;;;;18.35;100.00;100768.97;7389888;19;20022;-83
2022/05/27 10:36:24;;;;;;;1.50;0.63;;;;;;;18.44;100.00;100769.56;7387955;19;20074;-83
2022/05/27 10:39:08;;;;;;;12.43;1.15;;;;;;;18.42;100.00;100768.50;7386285;19;20422;-83
2022/05/27 10:41:54;;;;;;;1.40;0.98;;;;;;;18.47;100.00;100773.41;7393519;19;20014;-83
2022/05/27 10:44:57;;;;;;;7.40;0.52;;;;;;;18.42;100.00;100772.09;7396388;19;20010;-83
2022/05/27 10:51:04;;;;;;;3.03;0.35;;;;;;;18.34;100.00;100776.69;7399676;19;20471;-92
2022/05/27 10:53:39;;;;;;;6.65;0.50;;;;;;;18.26;100.00;100772.78;7393785;19;20026;-92
2022/05/27 10:56:30;;;;;;;5.15;0.40;;;;;;;17.80;100.00;100781.53;7396895;19;20006;-93
2022/05/27 11:02:38;;;;;;;0.98;0.43;;;;;;;19.13;100.00;100759.41;7400737;19;20037;-95
2022/05/27 11:05:28;;;;;;;4.53;0.50;;;;;;;19.13;100.00;100748.13;7397763;19;20014;-94
2022/05/27 11:08:10;;;;;;;3.13;0.25;;;;;;;19.03;100.00;100769.44;7396432;19;20014;-93
2022/05/27 11:10:43;;;;;;;1.45;0.90;;;;;;;18.84;100.00;100762.75;7396345;19;20034;-92
2022/05/27 11:16:58;;;;;;;9.52;0.70;;;;;;;18.26;100.00;100783.31;7394029;19;20423;-92
2022/05/27 11:19:52;;;;;;;1.38;0.10;;;;;;;17.92;100.00;100774.69;7393737;19;20461;-92
2022/05/27 11:22:36;;;;;;;0.30;0.20;;;;;;;17.86;100.00;100787.97;7396734;19;20019;-89
2022/05/27 11:25:29;;;;;;;0.30;0.30;;;;;;;18.28;100.00;100769.47;7397594;19;20039;-93
2022/05/27 11:28:28;;;;;;;5.57;0.82;;;;;;;18.85;100.00;100772.75;7399772;19;20014;-96
2022/05/27 11:31:12;;;;;;;1.25;0.45;;;;;;;19.63;100.00;100768.66;7393031;19;20024;-94
2022/05/27 11:33:47;;;;;;;2.10;0.52;;;;;;;20.02;100.00;100764.97;7395180;19;20039;-91
2022/05/27 11:36:45;;;;;;;2.33;0.65;;;;;;;20.54;100.00;100760.16;7392389;19;20046;-90
2022/05/27 11:39:34;;;;;;;0.40;0.20;;;;;;;20.60;94.35;100752.38;7393551;19;20014;-91
2022/05/27 11:42:28;;;;;;;2.25;0.40;;;;;;;20.69;91.49;100751.31;7396064;19;20018;-88
2022/05/27 11:45:32;;;;;;;2.10;0.68;;;;;;;20.41;98.22;100759.97;7393541;19;20429;-88
2022/05/27 11:48:01;;;;;;;0.33;0.33;;;;;;;20.30;95.96;100755.13;7391116;19;20448;-76
2022/05/27 11:50:54;;;;;;;2.17;0.25;;;;;;;19.71;94.67;100759.66;7382870;19;20273;-81
2022/05/27 11:53:51;;;;;;;2.55;0.30;;;;;;;19.51;96.21;100750.19;7390073;19;20022;-80
2022/05/27 11:56:26;;;;;;;0.90;0.32;;;;;;;19.35;98.63;100759.44;7385590;19;20014;-80
2022/05/27 11:58:55;;;;;;;0.90;0.10;;;;;;;19.17;98.72;100765.56;7385151;19;20018;-81
2022/05/27 12:01:30;;;;;;;1.25;0.30;;;;;;;18.91;98.72;100765.81;7386209;19;20015;-80
2022/05/27 12:04:05;;;;;;;0.52;0.35;;;;;;;18.73;99.48;100776.84;7385650;19;20018;-80
2022/05/27 12:06:54;;;;;;;7.50;0.63;;;;;;;18.64;100.00;100779.88;7384782;19;20469;-79
2022/05/27 12:09:30;;;;;;;3.00;0.57;;;;;;;18.95;100.00;100785.31;7383457;19;20018;-80
2022/05/27 12:12:11;;;;;;;3.83;0.47;;;;;;;19.38;100.00;100775.34;7385299;19;20033;-81
2022/05/27 12:14:41;;;;;;;0.10;0.10;;;;;;;20.13;100.00;100773.41;7385767;19;20021;-81